Time;durP1;ratioP1;P1;durP2;ratioP2;P2;SDS_P1;SDS_P2;PMS_P1;PMS_P2;Temp;Humidity;BMP_temperature;BMP_pressure;BME280_temperature;BME280_humidity;BME280_pressure;Samples;Min_cycle;Max_cycle;Signal;HPM_P1;HPM_P2
2024/03/24 00:01:33;;;;;;;4.10;2.28;;;;;;;11.51;42.49;98587.00;4825812;29;20036;-96
2024/03/24 00:03:58;;;;;;;4.88;2.72;;;;;;;11.48;42.70;98584.13;4855910;29;20037;-92
2024/03/24 00:06:24;;;;;;;7.53;2.78;;;;;;;11.48;42.51;98587.63;4824509;29;20097;-94
2024/03/24 00:08:51;;;;;;;3.47;2.25;;;;;;;11.30;42.80;98567.66;4840771;29;20037;-92
2024/03/24 00:11:16;;;;;;;4.55;2.30;;;;;;;11.32;42.92;98560.09;4824191;29;20093;-93
2024/03/24 00:13:42;;;;;;;3.35;2.30;;;;;;;11.30;42.78;98562.28;4824861;29;20029;-93
2024/03/24 00:16:08;;;;;;;3.60;2.33;;;;;;;11.33;43.22;98572.47;4840081;29;20054;-93
2024/03/24 00:18:33;;;;;;;5.15;2.33;;;;;;;11.29;43.02;98558.00;4839688;29;20069;-94
2024/03/24 00:21:02;;;;;;;3.30;2.30;;;;;;;11.22;43.34;98557.53;4824802;29;20044;-94
2024/03/24 00:23:27;;;;;;;3.33;2.22;;;;;;;11.19;43.26;98550.06;4824424;29;20037;-93
2024/03/24 00:25:53;;;;;;;3.47;2.30;;;;;;;11.25;43.37;98561.56;4838800;29;20029;-94
2024/03/24 00:28:18;;;;;;;4.13;2.55;;;;;;;11.13;43.22;98543.94;4840190;29;20029;-93
2024/03/24 00:30:44;;;;;;;3.08;2.20;;;;;;;11.22;43.32;98545.97;4839703;29;20029;-94
2024/03/24 00:33:09;;;;;;;5.13;2.88;;;;;;;11.14;43.15;98536.66;4825805;29;20105;-93
2024/03/24 00:35:35;;;;;;;3.67;2.40;;;;;;;11.23;43.47;98555.69;4823165;29;20058;-93
2024/03/24 00:38:00;;;;;;;4.45;2.33;;;;;;;11.01;43.33;98529.31;4838907;29;20034;-94
2024/03/24 00:40:26;;;;;;;3.20;2.10;;;;;;;11.09;43.41;98537.53;4839560;29;20420;-93
2024/03/24 00:42:51;;;;;;;2.95;2.35;;;;;;;11.09;43.57;98536.75;4838519;29;20066;-94
2024/03/24 00:45:17;;;;;;;4.80;2.55;;;;;;;11.08;43.44;98541.34;4824322;29;20162;-94
2024/03/24 00:47:42;;;;;;;3.42;2.50;;;;;;;10.83;43.65;98503.97;4824572;29;20477;-94
2024/03/24 00:50:09;;;;;;;5.20;2.60;;;;;;;10.86;43.84;98519.56;4839347;29;20030;-93
2024/03/24 00:52:36;;;;;;;3.33;2.40;;;;;;;10.81;43.84;98508.84;4824840;29;20645;-93
2024/03/24 00:55:02;;;;;;;4.85;2.78;;;;;;;10.98;43.73;98538.78;4824658;29;20033;-93
2024/03/24 00:57:28;;;;;;;6.00;2.50;;;;;;;10.95;43.70;98525.88;4823744;29;20040;-94
2024/03/24 00:59:54;;;;;;;3.90;2.38;;;;;;;10.95;43.60;98522.41;4839189;29;20033;-94
2024/03/24 01:02:20;;;;;;;3.28;2.22;;;;;;;10.90;43.72;98518.69;4839040;29;20033;-95
2024/03/24 01:04:46;;;;;;;4.03;2.38;;;;;;;10.90;43.71;98521.38;4823622;29;20025;-93
2024/03/24 01:07:11;;;;;;;3.10;2.30;;;;;;;10.85;43.76;98513.38;4822647;29;20093;-94
2024/03/24 01:09:37;;;;;;;3.25;2.38;;;;;;;10.90;43.80;98520.59;4838547;29;20040;-94
2024/03/24 01:12:02;;;;;;;3.65;2.72;;;;;;;10.71;44.24;98496.34;4837719;29;20040;-94
2024/03/24 01:14:29;;;;;;;4.32;2.50;;;;;;;10.66;43.80;98494.50;4822832;29;20029;-93
2024/03/24 01:16:54;;;;;;;3.00;2.10;;;;;;;10.76;44.28;98501.66;4822171;29;20485;-93
2024/03/24 01:19:20;;;;;;;3.85;2.42;;;;;;;10.65;44.28;98484.84;4837110;29;20034;-93
2024/03/24 01:21:45;;;;;;;3.67;2.40;;;;;;;10.83;44.26;98528.22;4852774;29;20033;-94
2024/03/24 01:24:11;;;;;;;3.28;2.40;;;;;;;10.75;44.26;98501.94;4821858;29;20563;-94
2024/03/24 01:26:36;;;;;;;3.85;2.50;;;;;;;10.71;44.07;98501.75;4837224;29;20062;-92
2024/03/24 01:29:02;;;;;;;3.75;2.40;;;;;;;10.65;44.39;98495.63;4821536;29;20492;-94
2024/03/24 01:31:30;;;;;;;2.88;2.10;;;;;;;10.58;44.27;98484.41;4835637;29;20063;-93
2024/03/24 01:33:56;;;;;;;4.07;2.38;;;;;;;10.75;44.13;98508.16;4834872;29;20029;-92
2024/03/24 01:36:21;;;;;;;4.03;2.50;;;;;;;10.59;44.16;98479.84;4836035;29;20040;-93
2024/03/24 01:38:47;;;;;;;4.22;2.53;;;;;;;10.65;44.23;98481.38;4821645;29;20033;-93
2024/03/24 01:41:12;;;;;;;4.00;2.25;;;;;;;10.64;44.25;98482.44;4833113;29;20037;-92
2024/03/24 01:43:38;;;;;;;4.65;2.80;;;;;;;10.66;44.12;98477.56;4820699;29;20033;-94
2024/03/24 01:46:03;;;;;;;4.15;2.55;;;;;;;10.76;44.20;98492.78;4818131;29;20053;-93
2024/03/24 01:48:29;;;;;;;3.42;2.42;;;;;;;10.62;44.38;98476.53;4832896;29;20026;-93
2024/03/24 01:50:54;;;;;;;7.38;2.42;;;;;;;10.68;44.44;98489.63;4834018;29;20037;-94
2024/03/24 01:53:20;;;;;;;5.00;2.28;;;;;;;10.65;44.34;98482.16;4835612;29;20037;-93
2024/03/24 01:55:46;;;;;;;5.97;2.42;;;;;;;10.57;44.45;98472.03;4836834;29;20037;-94
2024/03/24 01:58:12;;;;;;;3.88;2.42;;;;;;;10.59;44.65;98474.44;4823006;29;20029;-93
2024/03/24 02:00:37;;;;;;;4.43;2.65;;;;;;;10.50;44.15;98460.84;4821759;29;20041;-93
2024/03/24 02:03:03;;;;;;;3.67;2.58;;;;;;;10.50;44.06;98468.91;4822053;29;20060;-93
2024/03/24 02:05:28;;;;;;;4.72;2.80;;;;;;;10.55;44.39;98466.16;4821202;29;20145;-92
2024/03/24 02:07:54;;;;;;;3.80;2.60;;;;;;;10.61;44.43;98481.13;4822002;29;20532;-93
2024/03/24 02:10:22;;;;;;;5.15;2.72;;;;;;;10.65;44.59;98498.31;4822165;29;20476;-93
2024/03/24 02:12:47;;;;;;;4.15;2.38;;;;;;;10.51;44.56;98467.81;4852161;29;20037;-93
2024/03/24 02:15:13;;;;;;;5.22;2.80;;;;;;;10.51;44.40;98476.69;4838190;29;20054;-93
2024/03/24 02:17:40;;;;;;;4.32;2.30;;;;;;;10.56;44.41;98478.50;4821924;29;20454;-94
2024/03/24 02:20:06;;;;;;;3.60;2.50;;;;;;;10.58;44.32;98478.22;4821470;29;20030;-92
2024/03/24 02:22:41;;;;;;;3.63;2.35;;;;;;;10.63;44.33;98492.41;4821554;29;20041;-93
2024/03/24 02:25:07;;;;;;;3.85;2.53;;;;;;;10.51;44.40;98475.88;4821195;29;20132;-93
2024/03/24 02:27:33;;;;;;;6.63;2.97;;;;;;;10.59;44.32;98485.22;4833738;29;20125;-94
2024/03/24 02:30:01;;;;;;;6.22;3.10;;;;;;;10.50;44.09;98472.41;4847819;29;20037;-94
2024/03/24 02:32:26;;;;;;;6.13;3.00;;;;;;;10.48;44.17;98473.78;4817423;29;20033;-93
2024/03/24 02:34:52;;;;;;;5.78;3.80;;;;;;;10.55;44.26;98463.47;4847731;29;20473;-93
2024/03/24 02:37:18;;;;;;;4.97;3.53;;;;;;;10.69;44.34;98479.69;4847020;29;20033;-94
2024/03/24 02:39:43;;;;;;;5.57;3.72;;;;;;;10.68;44.11;98473.47;4845923;29;20507;-95
2024/03/24 02:42:09;;;;;;;5.45;3.75;;;;;;;10.59;44.83;98467.16;4830858;29;20038;-94
2024/03/24 02:44:36;;;;;;;6.50;3.90;;;;;;;10.54;45.91;98467.22;4816041;29;20065;-95
2024/03/24 02:47:02;;;;;;;10.32;4.75;;;;;;;10.49;45.76;98461.94;4832370;29;20036;-94
2024/03/24 02:49:27;;;;;;;10.98;5.30;;;;;;;10.33;46.24;98442.47;4835246;29;20049;-94
2024/03/24 02:51:53;;;;;;;7.45;4.80;;;;;;;10.34;46.19;98454.84;4835282;29;20045;-94
2024/03/24 02:54:18;;;;;;;6.38;4.32;;;;;;;10.35;46.53;98463.72;4834409;29;20029;-94
2024/03/24 02:56:44;;;;;;;8.60;3.88;;;;;;;10.12;47.00;98453.47;4834889;29;20481;-94
2024/03/24 02:59:09;;;;;;;8.02;3.58;;;;;;;10.20;47.28;98462.81;4835086;29;20450;-94
2024/03/24 03:01:35;;;;;;;8.65;3.83;;;;;;;10.05;47.03;98447.66;4834349;29;20048;-94
2024/03/24 03:04:00;;;;;;;7.28;4.00;;;;;;;9.93;47.06;98433.81;4849425;29;20507;-95
2024/03/24 03:06:26;;;;;;;8.90;4.22;;;;;;;9.93;47.35;98441.09;4835082;29;20030;-95
2024/03/24 03:08:51;;;;;;;6.15;3.90;;;;;;;9.82;48.01;98438.50;4834378;29;20025;-94
2024/03/24 03:11:17;;;;;;;11.48;4.28;;;;;;;9.75;47.79;98423.81;4834446;29;20036;-94
2024/03/24 03:13:42;;;;;;;8.68;4.35;;;;;;;9.91;46.63;98449.44;4835934;29;20042;-94
2024/03/24 03:16:08;;;;;;;5.95;3.78;;;;;;;9.85;46.27;98440.63;4833737;29;20030;-94
2024/03/24 03:18:33;;;;;;;6.32;4.25;;;;;;;10.02;46.17;98452.78;4834282;29;20120;-94
2024/03/24 03:20:59;;;;;;;6.60;4.15;;;;;;;9.78;47.88;98429.41;4835520;29;20025;-95
2024/03/24 03:23:24;;;;;;;8.75;4.20;;;;;;;9.67;48.62;98417.16;4833653;29;20041;-95
2024/03/24 03:25:50;;;;;;;9.15;4.30;;;;;;;9.77;48.61;98446.63;4833684;29;20036;-94
2024/03/24 03:28:18;;;;;;;6.07;3.70;;;;;;;9.51;49.34;98425.41;4835385;29;20030;-95
2024/03/24 03:30:43;;;;;;;9.27;4.65;;;;;;;9.40;49.35;98420.41;4849909;29;20029;-95
2024/03/24 03:33:08;;;;;;;10.50;4.25;;;;;;;9.33;49.32;98423.44;4833356;29;20488;-93
2024/03/24 03:35:34;;;;;;;7.85;4.50;;;;;;;9.47;49.79;98437.81;4833595;29;20037;-93
2024/03/24 03:37:59;;;;;;;8.02;4.00;;;;;;;9.43;49.94;98441.34;4834763;29;20397;-93
2024/03/24 03:40:25;;;;;;;9.85;4.43;;;;;;;9.28;50.16;98426.97;4833834;29;20089;-93
2024/03/24 03:42:50;;;;;;;15.60;4.68;;;;;;;9.34;50.05;98434.97;4833132;29;20568;-94
2024/03/24 03:45:17;;;;;;;6.93;4.32;;;;;;;9.18;49.99;98415.53;4832976;29;20057;-94
2024/03/24 03:47:43;;;;;;;14.38;4.65;;;;;;;9.23;50.48;98427.00;4834262;29;20112;-94
2024/03/24 03:50:13;;;;;;;8.85;4.80;;;;;;;9.15;50.74;98413.41;4833779;29;20065;-93
2024/03/24 03:52:39;;;;;;;9.38;4.40;;;;;;;9.07;51.50;98417.50;4835387;29;20044;-94
2024/03/24 03:55:11;;;;;;;9.60;4.78;;;;;;;9.17;51.22;98435.41;4832962;29;20393;-94
2024/03/24 03:57:37;;;;;;;;;;;;;;;9.23;50.72;98445.81;4834388;29;20076;-94
2024/03/24 04:00:06;;;;;;;6.45;4.60;;;;;;;9.11;51.10;98431.97;4848335;29;20390;-93
2024/03/24 04:02:32;;;;;;;13.85;5.13;;;;;;;8.99;51.15;98426.16;4833860;29;20112;-94
2024/03/24 04:04:57;;;;;;;7.78;4.70;;;;;;;9.01;51.32;98432.06;4837200;29;20036;-93
2024/03/24 04:07:23;;;;;;;11.95;5.05;;;;;;;8.89;52.11;98427.03;4849095;29;20081;-94
2024/03/24 04:09:49;;;;;;;9.07;4.75;;;;;;;8.87;52.58;98419.25;4833222;29;20125;-93
2024/03/24 04:12:14;;;;;;;10.55;5.32;;;;;;;8.83;52.80;98431.66;4833310;29;20064;-93
2024/03/24 04:14:40;;;;;;;10.65;4.97;;;;;;;8.84;52.86;98444.00;4833824;29;20064;-93
2024/03/24 04:17:06;;;;;;;12.10;5.90;;;;;;;8.76;53.33;98449.13;4848213;29;20465;-95
2024/03/24 04:19:32;;;;;;;8.55;5.25;;;;;;;8.69;52.94;98423.44;4832822;29;20066;-95
2024/03/24 04:21:57;;;;;;;11.68;5.20;;;;;;;8.73;53.40;98447.81;4848019;29;20029;-95
2024/03/24 04:24:23;;;;;;;9.93;5.10;;;;;;;8.73;52.89;98437.09;4833652;29;20032;-95
2024/03/24 04:26:48;;;;;;;9.52;5.10;;;;;;;8.78;53.23;98447.81;4833571;29;20412;-93
2024/03/24 04:29:14;;;;;;;9.57;5.38;;;;;;;8.74;53.06;98432.53;4832881;29;20063;-93
2024/03/24 04:31:39;;;;;;;9.55;5.32;;;;;;;8.68;52.99;98429.88;4847451;29;20052;-95
2024/03/24 04:34:05;;;;;;;8.43;4.80;;;;;;;8.80;53.27;98434.91;4831701;29;20029;-94
2024/03/24 04:36:30;;;;;;;8.50;5.45;;;;;;;8.81;53.20;98444.53;4848621;29;20030;-94
2024/03/24 04:38:56;;;;;;;9.18;4.78;;;;;;;8.89;52.35;98435.88;4833992;29;20037;-95
2024/03/24 04:41:22;;;;;;;9.90;5.25;;;;;;;8.83;53.66;98447.75;4833031;29;20489;-95
2024/03/24 04:43:47;;;;;;;8.95;4.97;;;;;;;8.77;52.99;98422.03;4832477;29;20042;-95
2024/03/24 04:46:13;;;;;;;9.52;5.22;;;;;;;8.82;52.66;98422.00;4817860;29;20038;-94
2024/03/24 04:48:38;;;;;;;9.45;4.57;;;;;;;9.06;52.70;98450.81;4816932;29;20029;-94
2024/03/24 04:51:04;;;;;;;11.48;5.15;;;;;;;9.07;52.63;98450.53;4817555;29;20045;-94
2024/03/24 04:53:30;;;;;;;11.10;5.38;;;;;;;8.90;53.58;98445.56;4817108;29;20033;-95
2024/03/24 04:55:55;;;;;;;7.90;4.50;;;;;;;8.88;53.45;98428.94;4817610;29;20040;-95
2024/03/24 04:58:21;;;;;;;7.43;4.63;;;;;;;8.87;53.68;98438.06;4818513;29;20030;-94
2024/03/24 05:00:46;;;;;;;10.10;5.13;;;;;;;8.94;53.51;98450.34;4817628;29;20564;-94
2024/03/24 05:03:12;;;;;;;11.35;4.70;;;;;;;9.06;53.14;98446.22;4816730;29;20029;-94
2024/03/24 05:05:38;;;;;;;8.10;4.60;;;;;;;9.23;52.90;98464.59;4817175;29;20030;-94
2024/03/24 05:08:04;;;;;;;11.95;4.47;;;;;;;9.00;53.62;98446.56;4816880;29;20508;-93
2024/03/24 05:10:29;;;;;;;12.32;6.18;;;;;;;9.24;52.70;98482.34;4817708;29;20120;-95
2024/03/24 05:12:55;;;;;;;15.70;5.45;;;;;;;9.16;53.17;98476.78;4819054;29;20065;-94
2024/03/24 05:15:21;;;;;;;6.30;3.92;;;;;;;9.25;52.29;98465.13;4818109;29;20036;-94
2024/03/24 05:17:46;;;;;;;7.40;4.10;;;;;;;9.27;52.65;98464.84;4817194;29;20029;-95
2024/03/24 05:20:12;;;;;;;6.95;4.03;;;;;;;9.39;52.25;98476.03;4818229;29;20029;-96
2024/03/24 05:22:37;;;;;;;8.68;3.92;;;;;;;9.46;52.29;98468.47;4817787;29;20034;-94
2024/03/24 05:25:06;;;;;;;5.57;3.80;;;;;;;9.55;51.91;98463.25;4816008;29;20390;-94
2024/03/24 05:27:32;;;;;;;6.93;3.90;;;;;;;9.65;51.58;98468.53;4818057;29;20116;-94
2024/03/24 05:29:57;;;;;;;6.65;3.80;;;;;;;9.82;50.79;98473.47;4832623;29;20034;-95
2024/03/24 05:32:23;;;;;;;7.32;5.03;;;;;;;9.97;50.79;98471.69;4816630;29;20409;-94
2024/03/24 05:34:48;;;;;;;9.50;4.25;;;;;;;10.21;50.09;98485.13;4816648;29;20033;-94
2024/03/24 05:37:14;;;;;;;5.55;3.55;;;;;;;10.26;50.49;98475.09;4816146;29;20489;-94
2024/03/24 05:39:40;;;;;;;8.23;3.70;;;;;;;10.44;49.46;98481.63;4817036;29;20030;-94
2024/03/24 05:42:06;;;;;;;5.95;3.60;;;;;;;10.54;48.59;98461.84;4817344;29;20030;-94
2024/03/24 05:44:32;;;;;;;5.95;3.92;;;;;;;10.65;47.82;98473.28;4825315;29;20052;-93
2024/03/24 05:46:57;;;;;;;5.30;3.33;;;;;;;10.78;47.14;98463.69;4850931;29;20044;-94
2024/03/24 05:49:23;;;;;;;9.65;3.63;;;;;;;10.91;46.46;98463.75;4849257;29;20469;-94
2024/03/24 05:51:49;;;;;;;7.70;3.45;;;;;;;11.09;45.79;98474.78;4850702;29;20033;-95
2024/03/24 05:54:15;;;;;;;4.60;3.10;;;;;;;11.08;45.45;98457.00;4851948;29;20087;-94
2024/03/24 05:56:40;;;;;;;7.38;3.75;;;;;;;11.45;45.38;98501.94;4849685;29;20029;-93
2024/03/24 05:59:06;;;;;;;4.82;3.25;;;;;;;11.38;44.72;98471.88;4850864;29;20081;-93
2024/03/24 06:01:31;;;;;;;4.18;3.05;;;;;;;11.48;44.01;98474.41;4851118;29;20048;-93
2024/03/24 06:03:58;;;;;;;6.32;3.85;;;;;;;11.66;43.59;98485.41;4848745;29;20029;-94
2024/03/24 06:06:24;;;;;;;12.90;3.55;;;;;;;11.73;43.53;98480.44;4850497;29;20048;-94
2024/03/24 06:08:50;;;;;;;4.93;3.22;;;;;;;11.81;43.33;98470.84;4865733;29;20031;-92
2024/03/24 06:11:16;;;;;;;12.90;3.80;;;;;;;11.87;43.26;98470.47;4849912;29;20400;-94
2024/03/24 06:13:41;;;;;;;7.13;3.53;;;;;;;12.07;43.06;98481.97;4849052;29;20029;-94
2024/03/24 06:16:07;;;;;;;6.30;3.63;;;;;;;12.07;43.06;98469.28;4849233;29;20032;-94
2024/03/24 06:18:33;;;;;;;5.10;3.80;;;;;;;12.29;42.45;98483.97;4864991;29;20349;-94
2024/03/24 06:20:59;;;;;;;7.50;4.07;;;;;;;12.31;41.99;98476.38;4849319;29;20053;-95
2024/03/24 06:23:25;;;;;;;5.50;3.83;;;;;;;12.43;41.61;98483.94;4851893;29;20115;-92
2024/03/24 06:25:51;;;;;;;7.63;4.03;;;;;;;12.38;41.18;98454.34;4853258;29;20511;-93
2024/03/24 06:28:16;;;;;;;4.70;2.78;;;;;;;12.53;40.14;98460.22;4852622;29;20057;-93
2024/03/24 06:30:42;;;;;;;5.68;2.72;;;;;;;12.88;40.22;98489.44;4853102;29;20036;-93
2024/03/24 06:33:07;;;;;;;3.92;2.83;;;;;;;12.89;39.67;98462.13;4854673;29;20033;-94
2024/03/24 06:35:33;;;;;;;3.88;2.72;;;;;;;13.05;39.25;98457.16;4852388;29;20444;-94
2024/03/24 06:37:58;;;;;;;4.60;2.60;;;;;;;13.18;38.92;98460.91;4853315;29;20040;-94
2024/03/24 06:40:25;;;;;;;4.07;2.63;;;;;;;13.21;39.14;98462.19;4869044;29;20085;-95
2024/03/24 06:42:59;;;;;;;3.10;2.30;;;;;;;13.36;39.02;98466.44;4853581;29;20056;-94
2024/03/24 06:45:30;;;;;;;4.72;2.60;;;;;;;13.46;38.30;98463.47;4855988;29;20124;-94
2024/03/24 06:48:00;;;;;;;4.00;2.95;;;;;;;13.67;38.24;98466.44;4853599;29;20036;-95
2024/03/24 06:50:26;;;;;;;4.03;2.78;;;;;;;13.62;38.15;98461.97;4853829;29;20033;-95
2024/03/24 06:52:52;;;;;;;3.60;2.30;;;;;;;13.75;38.10;98462.97;4852960;29;20089;-94
2024/03/24 06:55:18;;;;;;;4.30;2.60;;;;;;;13.85;37.87;98459.22;4853213;29;20121;-94
2024/03/24 06:57:45;;;;;;;5.00;3.10;;;;;;;14.09;37.66;98473.16;4852854;29;20025;-94
2024/03/24 07:00:11;;;;;;;5.43;2.97;;;;;;;14.11;37.22;98462.81;4853689;29;20029;-94
2024/03/24 07:02:36;;;;;;;5.07;3.15;;;;;;;14.27;36.80;98465.06;4853849;29;20492;-94
2024/03/24 07:05:03;;;;;;;5.38;3.42;;;;;;;14.53;37.06;98463.22;4854844;29;20035;-94
2024/03/24 07:07:30;;;;;;;4.93;3.40;;;;;;;14.65;36.20;98448.25;4868825;29;20111;-94
2024/03/24 07:09:56;;;;;;;4.72;3.05;;;;;;;14.85;35.33;98457.69;4853580;29;20073;-94
2024/03/24 07:12:21;;;;;;;5.88;3.70;;;;;;;15.04;35.09;98460.06;4853815;29;20021;-94
2024/03/24 07:14:47;;;;;;;9.00;5.30;;;;;;;15.23;35.23;98459.72;4852620;29;20017;-94
2024/03/24 07:17:12;;;;;;;8.85;4.30;;;;;;;15.27;34.90;98447.09;4852805;29;20516;-94
2024/03/24 07:19:38;;;;;;;9.60;4.50;;;;;;;15.41;35.48;98453.13;4853699;29;20036;-94
2024/03/24 07:22:04;;;;;;;6.75;4.00;;;;;;;15.48;35.00;98441.78;4852659;29;20056;-94
2024/03/24 07:24:29;;;;;;;6.35;4.40;;;;;;;15.70;34.80;98476.03;4852642;29;20053;-94
2024/03/24 07:26:55;;;;;;;7.55;4.45;;;;;;;15.63;34.36;98460.28;4853209;29;20049;-94
2024/03/24 07:29:20;;;;;;;8.75;4.32;;;;;;;15.62;34.15;98453.22;4852442;29;20097;-94
2024/03/24 07:31:46;;;;;;;8.65;4.57;;;;;;;15.75;34.15;98446.06;4852139;29;20569;-94
2024/03/24 07:34:11;;;;;;;6.32;4.60;;;;;;;15.90;33.71;98469.16;4851528;29;20411;-93
2024/03/24 07:36:38;;;;;;;6.57;4.32;;;;;;;16.05;33.68;98474.03;4854188;29;20480;-93
2024/03/24 07:39:03;;;;;;;9.63;4.40;;;;;;;16.12;33.35;98462.63;4853770;29;20112;-94
2024/03/24 07:41:29;;;;;;;8.32;4.80;;;;;;;16.19;33.57;98462.16;4852789;29;20025;-94
2024/03/24 07:43:54;;;;;;;9.82;4.43;;;;;;;16.31;33.75;98471.19;4853307;29;20029;-94
2024/03/24 07:46:20;;;;;;;8.40;4.05;;;;;;;16.39;33.56;98468.72;4836379;29;20040;-95
2024/03/24 07:48:45;;;;;;;6.63;4.38;;;;;;;16.52;33.36;98467.69;4852177;29;20077;-94
2024/03/24 07:51:11;;;;;;;11.27;5.13;;;;;;;16.55;32.58;98454.22;4854474;29;20040;-95
2024/03/24 07:53:36;;;;;;;12.00;6.63;;;;;;;16.51;32.20;98452.50;4852598;29;20022;-93
2024/03/24 07:56:02;;;;;;;11.13;6.00;;;;;;;16.56;31.78;98455.84;4852062;29;20084;-95
2024/03/24 07:58:27;;;;;;;10.73;6.50;;;;;;;16.72;31.77;98461.44;4851660;29;20032;-94
2024/03/24 08:00:53;;;;;;;13.18;6.25;;;;;;;16.80;31.82;98453.56;4836886;29;20057;-94
2024/03/24 08:03:19;;;;;;;12.32;6.43;;;;;;;16.81;31.23;98458.72;4851899;29;20492;-93
2024/03/24 08:05:44;;;;;;;14.68;6.78;;;;;;;16.88;32.49;98456.25;4851338;29;20036;-94
2024/03/24 08:08:10;;;;;;;12.50;6.38;;;;;;;16.95;31.94;98450.28;4853460;29;20029;-94
2024/03/24 08:10:36;;;;;;;12.38;7.13;;;;;;;16.97;32.44;98448.00;4868573;29;20047;-95
2024/03/24 08:13:02;;;;;;;12.00;7.35;;;;;;;17.06;31.68;98442.53;4851850;29;20029;-94
2024/03/24 08:15:27;;;;;;;9.77;6.57;;;;;;;17.17;31.80;98447.19;4852111;29;20021;-94
2024/03/24 08:17:53;;;;;;;12.88;6.85;;;;;;;17.28;31.63;98439.41;4851458;29;20052;-93
2024/03/24 08:20:18;;;;;;;8.43;5.75;;;;;;;17.42;31.45;98441.03;4853136;29;20032;-94
2024/03/24 08:22:44;;;;;;;9.13;5.93;;;;;;;17.47;31.69;98432.66;4851924;29;20051;-94
2024/03/24 08:25:09;;;;;;;9.23;6.38;;;;;;;17.59;31.25;98427.22;4867176;29;20090;-94
2024/03/24 08:27:35;;;;;;;10.48;6.18;;;;;;;17.76;30.93;98435.19;4866549;29;20033;-94
2024/03/24 08:30:00;;;;;;;10.95;5.70;;;;;;;17.69;30.64;98417.81;4851113;29;20025;-94
2024/03/24 08:32:26;;;;;;;7.07;5.25;;;;;;;17.65;31.53;98411.47;4837723;29;20021;-94
2024/03/24 08:34:53;;;;;;;8.82;5.75;;;;;;;17.73;31.86;98410.56;4852388;29;20021;-93
2024/03/24 08:37:19;;;;;;;9.05;5.68;;;;;;;17.69;30.90;98407.72;4867220;29;20025;-96
2024/03/24 08:39:48;;;;;;;8.07;4.80;;;;;;;17.95;31.14;98425.69;4867830;29;20044;-95
2024/03/24 08:42:14;;;;;;;9.02;5.18;;;;;;;17.99;31.23;98421.13;4851866;29;20571;-94
2024/03/24 08:44:39;;;;;;;8.85;4.25;;;;;;;18.02;30.31;98400.63;4850894;29;20084;-94
2024/03/24 08:47:05;;;;;;;10.73;5.35;;;;;;;18.12;30.40;98408.34;4852847;29;20052;-95
2024/03/24 08:49:31;;;;;;;5.50;3.97;;;;;;;18.06;30.34;98407.75;4885084;29;20064;-96
2024/03/24 08:51:56;;;;;;;7.03;4.80;;;;;;;18.18;30.13;98398.78;4853853;29;20096;-92
2024/03/24 08:55:10;;;;;;;5.25;3.53;;;;;;;18.38;29.71;98432.47;4858202;29;20024;-96
2024/03/24 08:57:37;;;;;;;7.13;3.55;;;;;;;18.25;29.35;98392.75;4883829;29;20037;-91
2024/03/24 09:00:04;;;;;;;4.95;3.67;;;;;;;18.29;29.81;98404.56;4880635;29;20036;-91
2024/03/24 09:02:30;;;;;;;5.30;3.10;;;;;;;18.37;29.74;98409.88;4865705;29;20025;-92
2024/03/24 09:04:55;;;;;;;6.13;3.25;;;;;;;18.36;29.13;98393.84;4850594;29;20028;-92
2024/03/24 09:07:21;;;;;;;4.45;3.30;;;;;;;18.41;29.60;98401.00;4850290;29;20037;-92
2024/03/24 09:09:47;;;;;;;5.80;3.45;;;;;;;18.59;29.18;98407.75;4849833;29;20029;-92
2024/03/24 09:12:13;;;;;;;7.57;3.63;;;;;;;18.60;29.21;98406.63;4850442;29;20040;-92
2024/03/24 09:14:38;;;;;;;4.90;3.53;;;;;;;18.54;29.27;98391.66;4880105;29;20029;-92
2024/03/24 09:17:04;;;;;;;5.10;3.38;;;;;;;18.53;29.54;98382.69;4866940;29;20071;-92
2024/03/24 09:19:29;;;;;;;6.70;3.50;;;;;;;18.50;29.07;98374.41;4852493;29;20039;-91
2024/03/24 09:21:55;;;;;;;6.10;2.97;;;;;;;18.46;29.30;98366.13;4866093;29;20500;-93
2024/03/24 09:24:20;;;;;;;9.50;3.70;;;;;;;18.42;29.03;98362.50;4850428;29;20040;-91
2024/03/24 09:26:46;;;;;;;4.50;3.22;;;;;;;18.51;29.38;98360.44;4834666;29;20037;-92
2024/03/24 09:29:14;;;;;;;5.40;3.10;;;;;;;18.60;29.39;98364.97;4866120;29;20099;-92
2024/03/24 09:31:39;;;;;;;6.30;2.95;;;;;;;18.54;29.04;98351.56;4868370;29;20032;-92
2024/03/24 09:34:05;;;;;;;5.50;3.42;;;;;;;18.53;29.52;98355.44;4860969;29;20389;-92
2024/03/24 09:36:31;;;;;;;5.35;3.20;;;;;;;18.51;29.83;98335.09;4867233;29;20412;-91
2024/03/24 09:38:57;;;;;;;4.22;3.25;;;;;;;18.65;30.13;98331.97;4851669;29;20037;-93
2024/03/24 09:41:28;;;;;;;4.72;3.28;;;;;;;18.82;29.54;98352.72;4866555;29;20056;-93
2024/03/24 09:43:54;;;;;;;5.03;3.80;;;;;;;18.69;29.47;98325.47;4836591;29;20256;-92
2024/03/24 09:46:20;;;;;;;4.80;3.25;;;;;;;18.76;29.51;98320.22;4834800;29;20033;-92
2024/03/24 09:48:45;;;;;;;5.38;3.40;;;;;;;18.83;30.43;98327.84;4844529;29;20040;-94
2024/03/24 09:51:12;;;;;;;4.20;3.35;;;;;;;18.75;29.78;98301.47;4836842;29;20416;-94
2024/03/24 09:53:38;;;;;;;6.18;3.25;;;;;;;18.85;30.22;98297.50;4850841;29;20029;-93
2024/03/24 09:56:06;;;;;;;6.00;3.17;;;;;;;19.02;29.69;98327.16;4851345;29;20111;-96
2024/03/24 09:58:32;;;;;;;6.53;3.58;;;;;;;18.93;29.52;98299.25;4849768;29;20475;-92
2024/03/24 10:00:58;;;;;;;5.30;3.60;;;;;;;19.04;29.08;98297.59;4891797;29;20044;-93
2024/03/24 10:03:23;;;;;;;6.85;3.63;;;;;;;19.06;29.39;98297.25;4861525;29;20033;-91
2024/03/24 10:05:49;;;;;;;5.47;3.50;;;;;;;19.14;29.52;98307.19;4873015;29;20032;-92
2024/03/24 10:08:14;;;;;;;4.50;3.22;;;;;;;19.00;29.60;98290.47;4893057;29;20025;-91
2024/03/24 10:10:40;;;;;;;5.35;3.60;;;;;;;19.08;29.26;98276.66;4865172;29;20025;-91
2024/03/24 10:13:06;;;;;;;4.38;3.28;;;;;;;19.29;28.75;98286.50;4863371;29;20073;-91
2024/03/24 10:15:33;;;;;;;4.72;3.55;;;;;;;19.31;29.13;98281.47;4881203;29;20025;-92
2024/03/24 10:18:03;;;;;;;8.73;3.45;;;;;;;19.38;29.38;98281.63;4865874;29;20028;-91
2024/03/24 10:20:30;;;;;;;5.07;3.30;;;;;;;19.53;29.12;98286.31;4896328;29;20375;-92
2024/03/24 10:22:56;;;;;;;4.30;3.35;;;;;;;19.50;28.93;98288.94;4880359;29;20116;-91
2024/03/24 10:25:26;;;;;;;6.90;3.70;;;;;;;19.57;28.98;98276.25;4865233;29;20495;-91
2024/03/24 10:27:52;;;;;;;4.55;3.78;;;;;;;19.46;28.76;98264.28;4849986;29;20507;-91
2024/03/24 10:30:18;;;;;;;6.15;3.88;;;;;;;19.60;28.47;98263.81;4874703;29;20120;-91
2024/03/24 10:32:43;;;;;;;6.50;3.60;;;;;;;19.53;28.33;98252.75;4881515;29;20036;-91
2024/03/24 10:35:10;;;;;;;5.25;3.08;;;;;;;19.44;28.58;98239.28;4862014;29;20100;-89
2024/03/24 10:37:36;;;;;;;6.68;3.30;;;;;;;19.59;28.55;98246.66;4901355;29;20044;-92
2024/03/24 10:40:05;;;;;;;5.82;3.60;;;;;;;19.44;28.29;98216.66;4899799;29;20059;-92
2024/03/24 10:42:32;;;;;;;4.70;3.40;;;;;;;19.55;28.32;98217.69;4868463;29;20025;-95
2024/03/24 10:44:58;;;;;;;5.18;3.70;;;;;;;19.61;28.19;98208.09;4867349;29;20108;-93
2024/03/24 10:47:23;;;;;;;6.32;3.95;;;;;;;19.71;28.38;98207.53;4853675;29;20029;-92
2024/03/24 10:49:49;;;;;;;9.68;3.72;;;;;;;19.66;27.95;98196.88;4869943;29;20399;-90
2024/03/24 10:52:14;;;;;;;5.90;3.53;;;;;;;19.79;28.06;98200.28;4869290;29;20196;-92
2024/03/24 10:54:40;;;;;;;9.40;3.90;;;;;;;19.84;27.74;98194.53;4868702;29;20029;-91
2024/03/24 10:57:05;;;;;;;5.25;3.58;;;;;;;19.92;27.82;98200.91;4867778;29;20101;-90
2024/03/24 10:59:32;;;;;;;6.50;3.22;;;;;;;19.83;27.47;98187.47;4883983;29;20039;-91
2024/03/24 11:01:58;;;;;;;4.60;3.50;;;;;;;19.79;27.73;98171.00;4869263;29;20494;-93
2024/03/24 11:04:25;;;;;;;6.50;4.03;;;;;;;19.85;28.01;98170.75;4883443;29;20028;-90
2024/03/24 11:06:51;;;;;;;7.40;3.67;;;;;;;19.82;27.89;98158.59;4899491;29;20028;-90
2024/03/24 11:09:16;;;;;;;7.13;3.88;;;;;;;19.88;28.79;98161.81;4868570;29;20047;-90
2024/03/24 11:11:42;;;;;;;5.78;3.88;;;;;;;19.94;29.37;98168.56;4871179;29;20411;-92
2024/03/24 11:14:08;;;;;;;5.32;3.85;;;;;;;19.84;29.30;98159.03;4887542;29;20057;-91
2024/03/24 11:16:34;;;;;;;8.65;3.97;;;;;;;20.04;29.34;98167.22;4870995;29;20029;-91
2024/03/24 11:19:07;;;;;;;5.45;3.35;;;;;;;19.79;29.97;98159.31;4887337;29;20047;-92
2024/03/24 11:21:37;;;;;;;7.18;3.70;;;;;;;19.68;30.23;98155.53;4871440;29;20035;-92
2024/03/24 11:24:07;;;;;;;6.28;4.05;;;;;;;19.69;29.79;98146.19;4886918;29;20120;-90
2024/03/24 11:26:32;;;;;;;6.20;4.22;;;;;;;19.94;29.88;98155.72;4903746;29;20032;-90
2024/03/24 11:28:58;;;;;;;9.43;4.30;;;;;;;19.87;30.07;98122.78;4859753;29;20039;-94